createdAt,value
2022-10-07T00:01:45.532Z,18.70
2022-10-07T00:04:14.876Z,18.70
2022-10-07T00:06:43.922Z,18.70
2022-10-07T00:09:12.941Z,18.70
2022-10-07T00:11:41.801Z,18.70
2022-10-07T00:14:10.602Z,18.70
2022-10-07T00:16:41.683Z,18.70
2022-10-07T00:19:30.399Z,18.70
2022-10-07T00:21:59.170Z,18.70
2022-10-07T00:24:28.230Z,18.70
2022-10-07T00:26:57.141Z,18.90
2022-10-07T00:29:26.246Z,18.60
2022-10-07T00:32:13.405Z,18.60
2022-10-07T00:34:43.660Z,18.60
2022-10-07T00:37:15.697Z,18.60
2022-10-07T00:39:46.030Z,18.60
2022-10-07T00:42:15.832Z,18.60
2022-10-07T00:44:46.098Z,18.60
2022-10-07T00:47:20.548Z,18.60
2022-10-07T00:49:55.847Z,18.60
2022-10-07T00:52:28.031Z,18.60
2022-10-07T00:54:59.661Z,18.50
2022-10-07T00:57:32.156Z,18.50
2022-10-07T01:00:02.189Z,18.50
2022-10-07T01:02:31.913Z,18.50
2022-10-07T01:05:05.236Z,18.50
2022-10-07T01:07:54.932Z,18.50
2022-10-07T01:10:34.028Z,18.50
2022-10-07T01:13:07.639Z,18.50
2022-10-07T01:15:40.875Z,18.50
2022-10-07T01:18:19.752Z,18.50
2022-10-07T01:20:56.150Z,18.50
2022-10-07T01:23:44.506Z,18.50
2022-10-07T01:26:41.097Z,18.50
2022-10-07T01:29:14.682Z,18.40
2022-10-07T01:31:50.135Z,18.40
2022-10-07T01:34:20.587Z,18.50
2022-10-07T01:36:53.716Z,18.40
2022-10-07T01:39:35.102Z,18.40
2022-10-07T01:42:06.712Z,18.40
2022-10-07T01:44:35.899Z,18.40
2022-10-07T01:47:05.018Z,18.40
2022-10-07T01:49:33.956Z,18.40
2022-10-07T01:52:15.749Z,18.50
2022-10-07T01:55:04.689Z,18.50
2022-10-07T01:57:42.893Z,18.50
2022-10-07T02:00:13.038Z,18.50
2022-10-07T02:03:05.070Z,18.50
2022-10-07T02:05:44.299Z,18.50
2022-10-07T02:08:33.855Z,18.50
2022-10-07T02:11:12.929Z,18.60
2022-10-07T02:13:58.112Z,18.60
2022-10-07T02:16:34.011Z,18.60
2022-10-07T02:19:08.290Z,18.60
2022-10-07T02:21:37.914Z,18.60
2022-10-07T02:24:11.220Z,18.60
2022-10-07T02:26:42.342Z,18.70
2022-10-07T02:29:16.245Z,18.70
2022-10-07T02:31:46.573Z,18.70
2022-10-07T02:34:20.102Z,18.70
2022-10-07T02:36:54.921Z,18.70
2022-10-07T02:39:23.959Z,18.70
2022-10-07T02:42:02.941Z,18.60
2022-10-07T02:44:37.624Z,18.60
2022-10-07T02:47:14.476Z,18.60
2022-10-07T02:49:46.271Z,18.60
2022-10-07T02:52:17.600Z,18.60
2022-10-07T02:54:51.360Z,18.60
2022-10-07T02:57:23.002Z,18.60
2022-10-07T02:59:54.671Z,18.50
2022-10-07T03:02:28.181Z,18.50
2022-10-07T03:04:59.146Z,18.50
2022-10-07T03:07:30.079Z,18.50
2022-10-07T03:09:59.002Z,18.40
2022-10-07T03:12:29.138Z,18.40
2022-10-07T03:14:59.585Z,18.30
2022-10-07T03:17:28.764Z,18.30
2022-10-07T03:19:58.233Z,18.30
2022-10-07T03:22:27.759Z,18.20
2022-10-07T03:24:56.475Z,18.20
2022-10-07T03:27:26.102Z,18.10
2022-10-07T03:29:55.385Z,18.10
2022-10-07T03:32:44.934Z,18.10
2022-10-07T03:35:13.706Z,18.10
2022-10-07T03:37:43.318Z,18.10
2022-10-07T03:40:12.956Z,18.00
2022-10-07T03:42:43.717Z,18.00
2022-10-07T03:45:12.765Z,18.00
2022-10-07T03:47:41.892Z,18.00
2022-10-07T03:50:12.516Z,17.90
2022-10-07T03:52:41.310Z,17.90
2022-10-07T03:55:11.089Z,17.90
2022-10-07T03:57:59.118Z,17.90
2022-10-07T04:00:30.043Z,17.90
2022-10-07T04:03:00.131Z,17.80
2022-10-07T04:05:30.504Z,17.80
2022-10-07T04:07:59.346Z,17.80
2022-10-07T04:10:28.623Z,17.80
2022-10-07T04:12:57.585Z,17.80
2022-10-07T04:15:26.600Z,17.80
2022-10-07T04:17:59.043Z,17.80
2022-10-07T04:20:31.096Z,17.80
2022-10-07T04:22:59.912Z,17.70
2022-10-07T04:25:38.719Z,17.70
2022-10-07T04:28:18.845Z,17.70
2022-10-07T04:30:54.228Z,17.60
2022-10-07T04:33:30.249Z,17.60
2022-10-07T04:36:18.134Z,17.60
2022-10-07T04:39:06.207Z,17.50
2022-10-07T04:41:43.411Z,17.50
2022-10-07T04:44:18.029Z,17.50
2022-10-07T04:47:06.660Z,17.60
2022-10-07T04:49:45.691Z,17.60
2022-10-07T04:52:16.346Z,17.60
2022-10-07T04:55:05.591Z,17.70
2022-10-07T04:57:40.247Z,17.70
2022-10-07T05:00:11.873Z,17.80
2022-10-07T05:02:40.813Z,17.80
2022-10-07T05:05:10.418Z,17.90
2022-10-07T05:07:40.704Z,17.90
2022-10-07T05:10:27.997Z,18.00
2022-10-07T05:12:57.268Z,18.10
2022-10-07T05:15:26.373Z,18.10
2022-10-07T05:17:56.108Z,18.20
2022-10-07T05:20:27.459Z,18.20
2022-10-07T05:22:59.444Z,18.20
2022-10-07T05:25:28.493Z,18.30
2022-10-07T05:27:57.280Z,18.30
2022-10-07T05:30:26.352Z,18.40
2022-10-07T05:32:56.011Z,18.40
2022-10-07T05:35:28.057Z,18.40
2022-10-07T05:37:58.591Z,18.50
2022-10-07T05:40:27.490Z,18.50
2022-10-07T05:43:05.991Z,18.60
2022-10-07T05:45:45.305Z,18.70
2022-10-07T05:48:15.546Z,18.70
2022-10-07T05:50:57.702Z,18.80
2022-10-07T05:53:28.736Z,18.90
2022-10-07T05:55:57.963Z,19.00
2022-10-07T05:58:29.017Z,19.10
2022-10-07T06:01:04.857Z,19.20
2022-10-07T06:03:35.792Z,19.30
2022-10-07T06:06:04.551Z,19.40
2022-10-07T06:08:35.058Z,19.50
2022-10-07T06:11:22.765Z,19.60
2022-10-07T06:13:53.032Z,19.70
2022-10-07T06:16:22.083Z,19.90
2022-10-07T06:18:52.769Z,19.90
2022-10-07T06:21:28.343Z,20.00
2022-10-07T06:24:03.615Z,20.00
2022-10-07T06:26:36.250Z,20.10
2022-10-07T06:29:06.247Z,20.10
2022-10-07T06:31:35.735Z,20.10
2022-10-07T06:34:06.424Z,20.10
2022-10-07T06:36:35.685Z,20.10
2022-10-07T06:39:06.190Z,20.10
2022-10-07T06:41:39.751Z,20.10
2022-10-07T06:44:40.787Z,20.10
2022-10-07T06:47:12.600Z,20.10
2022-10-07T06:49:44.220Z,20.10
2022-10-07T06:52:13.253Z,20.10
2022-10-07T06:54:44.796Z,20.10
2022-10-07T06:57:40.194Z,20.20
2022-10-07T07:00:05.334Z,20.20
2022-10-07T07:02:35.298Z,20.20
2022-10-07T07:05:08.687Z,20.30
2022-10-07T07:07:39.281Z,20.30
2022-10-07T07:10:10.688Z,20.30
2022-10-07T07:12:43.351Z,20.30
2022-10-07T07:15:12.818Z,20.40
2022-10-07T07:17:42.500Z,20.40
2022-10-07T07:20:13.595Z,20.40
2022-10-07T07:22:43.543Z,20.50
2022-10-07T07:25:14.234Z,20.50
2022-10-07T07:27:43.440Z,20.50
2022-10-07T07:30:13.908Z,20.40
2022-10-07T07:32:46.022Z,20.40
2022-10-07T07:35:15.269Z,20.40
2022-10-07T07:37:44.790Z,20.30
2022-10-07T07:40:15.137Z,20.30
2022-10-07T07:42:44.196Z,20.30
2022-10-07T07:45:13.824Z,20.30
2022-10-07T07:47:43.348Z,20.20
2022-10-07T07:50:12.665Z,20.20
2022-10-07T07:52:41.470Z,20.20
2022-10-07T07:55:11.106Z,20.20
2022-10-07T07:57:42.221Z,20.10
2022-10-07T08:00:15.139Z,20.10
2022-10-07T08:02:53.444Z,20.10
2022-10-07T08:05:24.186Z,20.10
2022-10-07T08:07:56.403Z,20.10
2022-10-07T08:10:27.234Z,20.00
2022-10-07T08:12:58.234Z,20.00
2022-10-07T08:15:27.113Z,20.00
2022-10-07T08:17:56.067Z,20.00
2022-10-07T08:20:24.913Z,20.00
2022-10-07T08:22:58.801Z,20.00
2022-10-07T08:25:29.794Z,20.00
2022-10-07T08:28:03.596Z,20.00
2022-10-07T08:30:34.074Z,20.00
2022-10-07T08:33:03.081Z,20.00
2022-10-07T08:35:31.739Z,20.00
2022-10-07T08:38:00.438Z,20.00
2022-10-07T08:40:29.367Z,20.00
2022-10-07T08:42:59.629Z,20.00
2022-10-07T08:45:33.789Z,19.90
2022-10-07T08:48:08.355Z,20.00
2022-10-07T08:50:46.313Z,20.00
2022-10-07T08:53:21.249Z,20.00
2022-10-07T08:55:55.216Z,20.00
2022-10-07T08:58:43.519Z,20.00
2022-10-07T09:01:28.188Z,20.00
2022-10-07T09:04:04.027Z,20.00
2022-10-07T09:06:37.387Z,20.00
2022-10-07T09:09:29.051Z,20.00
2022-10-07T09:12:00.918Z,20.00
2022-10-07T09:14:32.476Z,20.00
2022-10-07T09:17:07.933Z,20.00
2022-10-07T09:19:42.752Z,20.00
2022-10-07T09:22:19.637Z,20.00
2022-10-07T09:24:49.608Z,20.00
2022-10-07T09:27:23.192Z,20.00
2022-10-07T09:29:52.189Z,20.00
2022-10-07T09:32:23.155Z,20.00
2022-10-07T09:34:52.454Z,20.00
2022-10-07T09:37:23.637Z,20.00
2022-10-07T09:39:53.678Z,20.00
2022-10-07T09:42:35.420Z,20.00
2022-10-07T09:45:18.791Z,20.00
2022-10-07T09:47:53.936Z,20.00
2022-10-07T09:50:37.266Z,20.00
2022-10-07T09:53:07.682Z,20.00
2022-10-07T09:55:42.345Z,20.10
2022-10-07T09:58:19.972Z,20.10
2022-10-07T10:00:50.424Z,20.10
2022-10-07T10:03:21.303Z,20.10
2022-10-07T10:05:57.633Z,20.10
2022-10-07T10:08:29.892Z,20.10
2022-10-07T10:11:01.525Z,20.10
2022-10-07T10:13:33.767Z,20.10
2022-10-07T10:16:03.803Z,20.10
2022-10-07T10:18:59.059Z,20.10
2022-10-07T10:21:30.777Z,20.10
2022-10-07T10:24:01.081Z,20.10
2022-10-07T10:26:56.710Z,20.10
2022-10-07T10:29:45.179Z,20.00
2022-10-07T10:32:43.345Z,20.00
2022-10-07T10:35:17.002Z,20.00
2022-10-07T10:38:04.444Z,19.90
2022-10-07T10:40:39.627Z,19.90
2022-10-07T10:43:27.831Z,19.90
2022-10-07T10:46:21.712Z,19.90
2022-10-07T10:48:57.029Z,19.90
2022-10-07T10:51:48.276Z,19.90
2022-10-07T10:54:26.564Z,19.90
2022-10-07T10:57:03.451Z,20.00
2022-10-07T10:59:55.382Z,20.10
2022-10-07T11:02:49.168Z,20.20
2022-10-07T11:05:23.828Z,20.30
2022-10-07T11:07:59.765Z,20.50
2022-10-07T11:10:36.225Z,20.50
2022-10-07T11:13:19.271Z,20.70
2022-10-07T11:15:53.826Z,20.70
2022-10-07T11:18:28.886Z,20.80
2022-10-07T11:21:00.017Z,21.00
2022-10-07T11:23:43.103Z,21.40
2022-10-07T11:26:19.263Z,21.70
2022-10-07T11:28:51.209Z,22.00
2022-10-07T11:31:28.360Z,22.40
2022-10-07T11:34:13.822Z,22.40
2022-10-07T11:36:52.877Z,22.30
2022-10-07T11:39:24.395Z,22.10
2022-10-07T11:41:59.702Z,21.90
2022-10-07T11:44:34.244Z,21.80
2022-10-07T11:47:06.073Z,21.60
2022-10-07T11:49:39.223Z,21.40
2022-10-07T11:52:10.994Z,21.20
2022-10-07T11:54:54.739Z,21.10
2022-10-07T11:57:26.783Z,21.00
2022-10-07T12:00:00.478Z,20.90
2022-10-07T12:02:41.874Z,20.80
2022-10-07T12:05:55.928Z,20.70
2022-10-07T12:08:33.525Z,20.70
2022-10-07T12:11:41.635Z,20.60
2022-10-07T12:14:35.928Z,20.60
2022-10-07T12:17:30.619Z,20.50
2022-10-07T12:20:45.295Z,20.40
2022-10-07T12:23:43.693Z,20.40
2022-10-07T12:26:46.738Z,20.40
2022-10-07T12:29:51.073Z,20.50
2022-10-07T12:32:43.260Z,20.60
2022-10-07T12:35:53.058Z,20.60
2022-10-07T12:38:28.360Z,20.60
2022-10-07T12:41:23.420Z,20.60
2022-10-07T12:44:00.750Z,20.60
2022-10-07T12:46:35.725Z,20.50
2022-10-07T12:49:14.673Z,20.50
2022-10-07T12:51:46.050Z,20.40
2022-10-07T12:54:20.448Z,20.40
2022-10-07T12:56:51.042Z,20.40
2022-10-07T12:59:51.395Z,20.30
2022-10-07T13:02:54.900Z,20.30
2022-10-07T13:06:05.523Z,20.30
2022-10-07T13:09:09.955Z,20.20
2022-10-07T13:11:59.977Z,20.20
2022-10-07T13:14:38.081Z,20.10
2022-10-07T13:17:22.725Z,20.10
2022-10-07T13:20:00.856Z,20.00
2022-10-07T13:22:30.989Z,20.00
2022-10-07T13:25:02.972Z,19.90
2022-10-07T13:27:34.721Z,19.80
2022-10-07T13:30:07.865Z,19.70
2022-10-07T13:32:37.427Z,19.70
2022-10-07T13:35:25.001Z,19.40
2022-10-07T13:37:54.154Z,19.60
2022-10-07T13:40:26.640Z,19.50
2022-10-07T13:42:56.825Z,19.50
2022-10-07T13:45:28.548Z,19.40
2022-10-07T13:47:58.423Z,19.40
2022-10-07T13:50:30.947Z,19.40
2022-10-07T13:53:01.272Z,19.40
2022-10-07T13:55:32.036Z,19.40
2022-10-07T13:58:04.610Z,19.30
2022-10-07T14:00:37.412Z,19.30
2022-10-07T14:03:15.115Z,19.30
2022-10-07T14:05:52.209Z,19.20
2022-10-07T14:08:22.917Z,19.20
2022-10-07T14:10:55.266Z,19.20
2022-10-07T14:13:24.683Z,19.20
2022-10-07T14:15:57.930Z,19.10
2022-10-07T14:18:45.878Z,19.10
2022-10-07T14:21:17.568Z,19.10
2022-10-07T14:23:48.077Z,19.10
2022-10-07T14:26:19.274Z,19.00
2022-10-07T14:28:48.240Z,19.00
2022-10-07T14:31:54.829Z,18.90
2022-10-07T14:34:40.724Z,18.80
2022-10-07T14:37:31.681Z,18.80
2022-10-07T14:40:00.593Z,18.70
2022-10-07T14:42:33.575Z,18.70
2022-10-07T14:45:04.838Z,18.70
2022-10-07T14:47:53.823Z,18.70
2022-10-07T14:50:23.356Z,18.70
2022-10-07T14:52:53.463Z,18.60
2022-10-07T14:55:25.345Z,18.60
2022-10-07T14:57:55.474Z,18.60
2022-10-07T15:00:26.363Z,18.50
2022-10-07T15:02:57.022Z,18.50
2022-10-07T15:05:26.663Z,18.40
2022-10-07T15:07:55.490Z,18.50
2022-10-07T15:10:26.784Z,18.50
2022-10-07T15:12:57.007Z,18.50
2022-10-07T15:15:25.813Z,18.50
2022-10-07T15:17:56.565Z,18.50
2022-10-07T15:20:25.259Z,18.50
2022-10-07T15:22:54.067Z,18.50
2022-10-07T15:25:22.893Z,18.50
2022-10-07T15:27:51.946Z,18.50
2022-10-07T15:30:21.251Z,18.50
2022-10-07T15:32:49.987Z,18.50
2022-10-07T15:35:20.957Z,18.50
2022-10-07T15:37:49.632Z,18.50
2022-10-07T15:40:18.846Z,18.50
2022-10-07T15:42:48.038Z,18.50
2022-10-07T15:45:17.253Z,18.50
2022-10-07T15:47:46.142Z,18.50
2022-10-07T15:50:16.437Z,18.50
2022-10-07T15:52:46.704Z,18.40
2022-10-07T15:55:16.543Z,18.40
2022-10-07T15:57:45.529Z,18.40
2022-10-07T16:00:15.777Z,18.30
2022-10-07T16:02:45.226Z,18.30
2022-10-07T16:05:15.479Z,18.30
2022-10-07T16:07:45.807Z,18.30
2022-10-07T16:10:14.833Z,18.30
2022-10-07T16:12:43.958Z,18.30
2022-10-07T16:15:13.120Z,18.30
2022-10-07T16:17:41.809Z,18.30
2022-10-07T16:20:11.695Z,18.30
2022-10-07T16:22:40.568Z,18.20
2022-10-07T16:25:11.227Z,18.20
2022-10-07T16:27:57.775Z,18.20
2022-10-07T16:30:49.359Z,18.20
2022-10-07T16:33:19.151Z,18.20
2022-10-07T16:35:47.883Z,18.20
2022-10-07T16:38:16.734Z,18.20
2022-10-07T16:40:56.079Z,18.10
2022-10-07T16:43:24.928Z,18.10
2022-10-07T16:45:53.662Z,18.10
2022-10-07T16:48:22.468Z,18.10
2022-10-07T16:50:51.308Z,18.10
2022-10-07T16:53:20.031Z,18.10
2022-10-07T16:55:49.040Z,18.10
2022-10-07T16:58:19.379Z,18.10
2022-10-07T17:00:48.248Z,18.10
2022-10-07T17:03:17.076Z,18.10
2022-10-07T17:05:45.740Z,18.10
2022-10-07T17:08:14.528Z,18.10
2022-10-07T17:10:43.461Z,18.10
2022-10-07T17:13:12.857Z,18.10
2022-10-07T17:15:43.103Z,18.10
2022-10-07T17:18:12.673Z,18.10
2022-10-07T17:20:41.983Z,18.10
2022-10-07T17:23:10.978Z,18.10
2022-10-07T17:25:40.459Z,18.10
2022-10-07T17:28:09.344Z,18.10
2022-10-07T17:30:38.062Z,18.10
2022-10-07T17:33:09.012Z,18.10
2022-10-07T17:35:38.421Z,18.10
2022-10-07T17:38:07.146Z,18.10
2022-10-07T17:40:36.922Z,18.10
2022-10-07T17:43:08.054Z,18.10
2022-10-07T17:45:37.342Z,18.10
2022-10-07T17:48:08.675Z,18.10
2022-10-07T17:50:39.464Z,18.00
2022-10-07T17:53:08.423Z,18.00
2022-10-07T17:55:37.867Z,18.10
2022-10-07T17:58:06.635Z,18.00
2022-10-07T18:00:35.489Z,18.00
2022-10-07T18:03:05.654Z,18.10
2022-10-07T18:05:35.864Z,18.00
2022-10-07T18:08:04.647Z,18.00
2022-10-07T18:10:33.368Z,18.00
2022-10-07T18:13:19.715Z,18.00
2022-10-07T18:15:59.074Z,18.00
2022-10-07T18:18:28.473Z,18.00
2022-10-07T18:21:17.326Z,18.00
2022-10-07T18:23:46.065Z,18.00
2022-10-07T18:26:14.898Z,17.90
2022-10-07T18:28:44.050Z,17.90
2022-10-07T18:31:14.909Z,17.90
2022-10-07T18:33:43.730Z,17.90
2022-10-07T18:36:15.309Z,17.90
2022-10-07T18:38:46.581Z,17.90
2022-10-07T18:41:17.893Z,17.90
2022-10-07T18:43:47.200Z,17.80
2022-10-07T18:46:18.660Z,17.80
2022-10-07T18:48:49.326Z,17.80
2022-10-07T18:51:37.667Z,17.80
2022-10-07T18:54:08.026Z,17.80
2022-10-07T18:56:40.888Z,17.80
2022-10-07T18:59:13.207Z,17.80
2022-10-07T19:01:44.388Z,17.80
2022-10-07T19:04:16.740Z,17.80
2022-10-07T19:06:46.393Z,17.80
2022-10-07T19:09:18.551Z,17.80
2022-10-07T19:11:47.791Z,17.80
2022-10-07T19:14:15.739Z,17.70
2022-10-07T19:16:46.174Z,17.70
2022-10-07T19:19:17.272Z,17.70
2022-10-07T19:21:47.713Z,17.70
2022-10-07T19:24:19.347Z,17.60
2022-10-07T19:26:50.306Z,17.60
2022-10-07T19:29:19.477Z,17.60
2022-10-07T19:31:50.197Z,17.60
2022-10-07T19:34:21.005Z,17.60
2022-10-07T19:36:50.725Z,17.60
2022-10-07T19:39:23.456Z,17.50
2022-10-07T19:41:52.336Z,17.50
2022-10-07T19:44:21.311Z,17.50
2022-10-07T19:46:52.624Z,17.50
2022-10-07T19:49:22.405Z,17.50
2022-10-07T19:51:51.304Z,17.60
2022-10-07T19:54:21.499Z,17.60
2022-10-07T19:56:50.250Z,17.60
2022-10-07T19:59:19.286Z,17.60
2022-10-07T20:01:49.887Z,17.60
2022-10-07T20:04:37.382Z,17.60
2022-10-07T20:07:06.141Z,17.50
2022-10-07T20:09:36.365Z,17.50
2022-10-07T20:12:05.634Z,17.50
2022-10-07T20:14:35.510Z,17.50
2022-10-07T20:17:04.463Z,17.50
2022-10-07T20:19:33.421Z,17.50
2022-10-07T20:22:03.511Z,17.50
2022-10-07T20:24:32.631Z,17.50
2022-10-07T20:27:04.247Z,17.50
2022-10-07T20:29:33.130Z,17.50
2022-10-07T20:32:02.243Z,17.50
2022-10-07T20:34:31.117Z,17.40
2022-10-07T20:37:00.232Z,17.50
2022-10-07T20:39:46.542Z,17.40
2022-10-07T20:42:24.711Z,17.50
2022-10-07T20:44:54.375Z,17.50
2022-10-07T20:47:25.005Z,17.40
2022-10-07T20:50:12.700Z,17.40
2022-10-07T20:52:41.477Z,17.40
2022-10-07T20:55:11.739Z,17.40
2022-10-07T20:57:42.010Z,17.40
2022-10-07T21:00:16.495Z,17.40
2022-10-07T21:02:46.049Z,17.30
2022-10-07T21:05:33.761Z,17.40
2022-10-07T21:08:02.892Z,17.40
2022-10-07T21:10:32.920Z,17.30
2022-10-07T21:13:03.184Z,17.40
2022-10-07T21:15:32.053Z,17.40
2022-10-07T21:18:00.843Z,17.30
2022-10-07T21:20:29.659Z,17.30
2022-10-07T21:22:58.480Z,17.30
2022-10-07T21:25:27.195Z,17.30
2022-10-07T21:27:55.982Z,17.40
2022-10-07T21:30:26.381Z,17.30
2022-10-07T21:32:55.255Z,17.30
2022-10-07T21:35:24.028Z,17.30
2022-10-07T21:37:52.810Z,17.30
2022-10-07T21:40:21.944Z,17.30
2022-10-07T21:42:50.742Z,17.30
2022-10-07T21:45:19.526Z,17.30
2022-10-07T21:47:50.754Z,17.30
2022-10-07T21:50:19.997Z,17.30
2022-10-07T21:52:49.160Z,17.30
2022-10-07T21:55:18.361Z,17.30
2022-10-07T21:57:47.212Z,17.30
2022-10-07T22:00:17.430Z,17.30
2022-10-07T22:02:46.621Z,17.30
2022-10-07T22:05:17.723Z,17.30
2022-10-07T22:08:22.227Z,17.30
2022-10-07T22:10:51.635Z,17.30
2022-10-07T22:13:20.589Z,17.20
2022-10-07T22:15:50.369Z,17.20
2022-10-07T22:18:19.447Z,17.30
2022-10-07T22:20:49.841Z,17.20
2022-10-07T22:23:20.097Z,17.30
2022-10-07T22:25:49.358Z,17.30
2022-10-07T22:28:18.252Z,17.30
2022-10-07T22:30:47.120Z,17.30
2022-10-07T22:33:15.969Z,17.20
2022-10-07T22:35:44.727Z,17.20
2022-10-07T22:38:14.871Z,17.20
2022-10-07T22:40:44.504Z,17.20
2022-10-07T22:43:13.327Z,17.20
2022-10-07T22:45:43.491Z,17.20
2022-10-07T22:48:12.182Z,17.20
2022-10-07T22:50:42.673Z,17.10
2022-10-07T22:53:11.629Z,17.10
2022-10-07T22:55:41.743Z,17.20
2022-10-07T22:58:10.890Z,17.10
2022-10-07T23:00:39.675Z,17.10
2022-10-07T23:03:11.139Z,17.20
2022-10-07T23:05:39.960Z,17.20
2022-10-07T23:08:08.959Z,17.20
2022-10-07T23:10:37.761Z,17.20
2022-10-07T23:13:08.166Z,17.20
2022-10-07T23:15:36.958Z,17.20
2022-10-07T23:18:06.207Z,17.20
2022-10-07T23:20:34.829Z,17.20
2022-10-07T23:23:03.541Z,17.20
2022-10-07T23:25:32.221Z,17.20
2022-10-07T23:28:01.054Z,17.20
2022-10-07T23:30:31.359Z,17.20
2022-10-07T23:33:00.100Z,17.20
2022-10-07T23:35:32.709Z,17.20
2022-10-07T23:38:01.739Z,17.20
2022-10-07T23:40:30.424Z,17.10
2022-10-07T23:42:59.329Z,17.10
2022-10-07T23:45:28.046Z,17.10
2022-10-07T23:47:58.165Z,17.10
2022-10-07T23:50:27.982Z,17.10
2022-10-07T23:52:56.856Z,17.10
2022-10-07T23:55:25.592Z,17.10
2022-10-07T23:57:54.504Z,17.10
